FRIANT DAM (MILLERTON) (MIL)

Elevation: 581' · SAN JOAQUIN R basin · Operator: US Bureau of Reclamation

Provisional data, subject to change.
Query executed Tuesday at 9:00:06   clock

Select a sensor type for a plot of data.
Note: Reservoir Flows are daily averages.

Earlier

Date RES ELE    STORAGE    RES CHG    TOC STO    ABV TOC    OUTFLOW    INFLOW    EVAP    FNF    RIV REL    PPT INC    SPILL   
 FEET   AF   AF   AF   AF   CFS   CFS   CFS   CFS   CFS   INCHES   CFS  
06/27/2016 563.77 453380 452 520500 -- 2598 2889 63 2985 293 0.00 0
06/28/2016 563.77 453380 0 520500 -67120 2816 2881 65 3115 293 0.00 0
06/29/2016 563.58 452521 -859 520500 -67979 2950 2608 91 3219 293 0.00 0
06/30/2016 563.38 451616 -905 520500 -- 2916 2519 59 2945 293 0.00 0
07/01/2016 563.17 450665 -951 520500 -69835 2726 2305 58 2749 292 0.00 0
07/02/2016 563.06 450168 -497 520500 -70332 2475 2294 70 2276 292 0.00 0
07/03/2016 562.89 449401 -767 520500 -71099 2524 2198 61 2230 292 0.00 0
07/04/2016 562.68 448457 -944 520500 -72043 2610 2194 60 2023 292 0.00 0
07/05/2016 562.59 448052 -405 520500 -72448 2747 2594 51 1983 292 0.00 0
07/06/2016 562.18 446208 -1844 520500 -74292 2879 1993 44 1575 292 0.00 0
07/07/2016 561.76 444325 -1883 520500 -76175 2835 1937 51 1459 292 0.00 0
07/08/2016 561.50 443163 -1162 520500 -- 2629 2102 59 1545 292 0.00 0
07/09/2016 561.29 442224 -939 520500 -78276 2509 2095 59 1450 291 0.00 0
07/10/2016 560.89 440439 -1785 520500 -80061 2696 1848 52 1312 291 0.00 0
07/11/2016 560.48 438618 -1821 520500 -81882 3055 2187 50 1164 425 0.00 0
07/12/2016 559.85 435821 -2797 520500 -84679 3330 1976 56 1040 491 0.00 0
07/13/2016 559.18 432856 -2965 520500 -87644 3507 2045 33 902 491 0.00 0
07/14/2016 558.54 430035 -2821 520500 -90465 3571 2206 57 955 490 0.00 0
07/15/2016 557.87 427092 -2943 520500 -93408 3461 2044 67 963 489 0.00 0
07/16/2016 557.12 423813 -3279 520500 -96687 3408 1818 63 567 489 0.00 0
07/17/2016 556.26 420073 -3740 520500 -100427 3648 1813 51 998 488 0.00 0
07/18/2016 555.33 416052 -4021 520500 -104448 3866 1888 49 616 487 0.00 0
07/19/2016 554.38 411967 -4085 520500 -108533 3922 1913 50 634 486 0.00 0
07/20/2016 553.28 407268 -4699 520500 -113232 4087 1769 51 658 638 0.00 0
07/21/2016 551.92 401501 -5767 520500 -118999 4656 1800 51 506 1142 0.00 0
07/22/2016 550.70 396373 -5128 520500 -124127 4575 2036 46 486 1206 0.00 0
07/23/2016 549.50 391361 -5012 520500 -129139 4275 1795 47 540 e 1202 0.00 0
07/24/2016 548.46 387039 -4322 520500 -133461 4399 2270 50 539 e 1199 0.00 0
07/25/2016 547.27 382129 -4910 -- -- 4624 2201 52 609 1196 0.00 0
07/26/2016 -- -- -- -- -- -- -- -- -- -- -- --

Later | Latest

Warning! This data is preliminary and subject to revision.

Show MIL Map | Plot MIL Data | 1 Month MIL Data | Real-Time MIL Data | MIL Info